Time;durP1;ratioP1;P1;durP2;ratioP2;P2;SDS_P1;SDS_P2;PMS_P1;PMS_P2;Temp;Humidity;BMP_temperature;BMP_pressure;BME280_temperature;BME280_humidity;BME280_pressure;Samples;Min_cycle;Max_cycle;Signal;HPM_P1;HPM_P2
2022/04/22 00:04:08;;;;;;;2.95;1.65;;;13.00;56.90;;;;;;10192413;28;20026;-64
2022/04/22 00:08:59;;;;;;;4.75;2.00;;;13.00;57.30;;;;;;10180363;28;20466;-63
2022/04/22 00:13:50;;;;;;;3.67;1.92;;;13.00;57.40;;;;;;10188528;28;20083;-63
2022/04/22 00:18:41;;;;;;;2.85;1.80;;;12.90;57.80;;;;;;10176332;28;20080;-63
2022/04/22 00:23:32;;;;;;;2.17;1.80;;;12.90;58.00;;;;;;10176561;28;20095;-62
2022/04/22 00:28:23;;;;;;;1.80;1.55;;;12.90;58.10;;;;;;10197739;28;20605;-62
2022/04/22 00:33:14;;;;;;;3.22;2.25;;;12.70;58.70;;;;;;10208358;28;20498;-62
2022/04/22 00:38:05;;;;;;;2.55;1.92;;;12.70;58.40;;;;;;10200754;28;20035;-63
2022/04/22 00:42:56;;;;;;;2.67;1.73;;;12.70;58.70;;;;;;10201422;28;20102;-62
2022/04/22 00:47:47;;;;;;;2.17;1.98;;;12.60;59.10;;;;;;10184869;28;20377;-63
2022/04/22 00:52:38;;;;;;;4.30;2.05;;;12.60;59.40;;;;;;10198961;28;20038;-63
2022/04/22 00:57:29;;;;;;;2.55;1.90;;;12.50;59.60;;;;;;10201354;28;20044;-62
2022/04/22 01:02:19;;;;;;;2.97;2.28;;;12.50;59.80;;;;;;10203191;28;20028;-65
2022/04/22 01:12:20;;;;;;;4.47;2.72;;;12.30;60.50;;;;;;10191356;28;20070;-62
2022/04/22 01:17:10;;;;;;;2.92;2.17;;;12.30;60.70;;;;;;10202357;28;20119;-64
2022/04/22 01:22:02;;;;;;;4.80;2.72;;;12.30;60.20;;;;;;10174177;28;20489;-63
2022/04/22 01:26:55;;;;;;;4.00;2.38;;;12.40;60.30;;;;;;10191098;28;20056;-62
2022/04/22 01:31:46;;;;;;;4.07;2.97;;;12.20;60.70;;;;;;10205277;28;20132;-63
2022/04/22 01:36:37;;;;;;;4.40;2.28;;;12.20;61.00;;;;;;10193758;28;20123;-63
2022/04/22 01:41:29;;;;;;;3.40;2.17;;;12.20;61.20;;;;;;10200626;28;20110;-63
2022/04/22 01:46:20;;;;;;;5.03;1.98;;;12.10;61.50;;;;;;10205689;28;20181;-63
2022/04/22 01:51:11;;;;;;;3.70;2.53;;;12.10;61.60;;;;;;10201513;28;20111;-62
2022/04/22 01:56:02;;;;;;;4.43;2.58;;;11.90;62.60;;;;;;10198190;28;20040;-62
2022/04/22 02:00:53;;;;;;;3.90;2.30;;;11.70;63.20;;;;;;10187319;28;20032;-65
2022/04/22 02:05:44;;;;;;;2.47;2.08;;;11.70;63.90;;;;;;10201852;28;20106;-62
2022/04/22 02:10:34;;;;;;;4.05;2.75;;;11.60;63.70;;;;;;10190808;28;20028;-63
2022/04/22 02:15:26;;;;;;;4.43;3.13;;;11.50;64.20;;;;;;10187767;28;20326;-62
2022/04/22 02:20:17;;;;;;;4.80;2.72;;;11.40;65.20;;;;;;10179671;28;20397;-62
2022/04/22 02:25:08;;;;;;;6.47;4.75;;;11.40;65.00;;;;;;10190886;28;20040;-64
2022/04/22 02:29:59;;;;;;;5.13;3.33;;;11.40;65.10;;;;;;10184165;28;20118;-62
2022/04/22 02:34:49;;;;;;;5.78;3.25;;;11.30;65.50;;;;;;10202583;28;20110;-63
2022/04/22 02:39:40;;;;;;;5.22;3.17;;;11.20;65.50;;;;;;10195867;28;20064;-62
2022/04/22 02:49:44;;;;;;;8.73;4.00;;;11.10;67.20;;;;;;10205386;28;20080;-64
2022/04/22 02:54:35;;;;;;;5.90;3.92;;;11.10;67.30;;;;;;10207186;28;20020;-62
2022/04/22 02:59:26;;;;;;;6.82;3.65;;;11.00;67.00;;;;;;10209398;28;20036;-64
2022/04/22 03:04:18;;;;;;;12.80;4.10;;;11.00;67.70;;;;;;10187004;28;20463;-63
2022/04/22 03:09:09;;;;;;;8.38;4.30;;;10.90;68.00;;;;;;10196327;28;20028;-64
2022/04/22 03:13:59;;;;;;;6.43;4.20;;;10.90;68.30;;;;;;10189599;28;20122;-63
2022/04/22 03:18:50;;;;;;;8.00;4.40;;;10.70;69.60;;;;;;10181234;28;20032;-63
2022/04/22 03:23:41;;;;;;;6.22;4.07;;;10.80;68.80;;;;;;10177377;28;20080;-63
2022/04/22 03:28:31;;;;;;;10.88;5.18;;;10.70;69.40;;;;;;10213742;28;20685;-64
2022/04/22 03:33:22;;;;;;;15.35;5.57;;;10.70;69.00;;;;;;10208111;28;20302;-64
2022/04/22 03:38:14;;;;;;;8.40;5.07;;;10.60;69.70;;;;;;10192523;28;20044;-64
2022/04/22 03:43:05;;;;;;;9.27;5.35;;;10.50;70.50;;;;;;10196257;28;20490;-63
2022/04/22 03:47:59;;;;;;;9.75;5.20;;;10.60;70.90;;;;;;10204416;28;20027;-63
2022/04/22 03:52:49;;;;;;;8.75;5.70;;;10.50;71.00;;;;;;10211728;28;20030;-63
2022/04/22 04:02:50;;;;;;;10.98;5.65;;;10.40;72.60;;;;;;10193671;28;20035;-61
2022/04/22 04:07:40;;;;;;;11.07;5.72;;;10.30;73.00;;;;;;10211309;28;20122;-62
2022/04/22 04:17:40;;;;;;;9.43;6.00;;;10.30;73.90;;;;;;10181117;28;20055;-63
2022/04/22 04:27:40;;;;;;;11.02;6.65;;;10.20;74.00;;;;;;10198342;28;20058;-63
2022/04/22 04:32:31;;;;;;;9.32;5.72;;;10.30;73.60;;;;;;10188436;28;20084;-63
2022/04/22 04:37:21;;;;;;;12.93;6.63;;;10.20;73.80;;;;;;10190734;28;20105;-65
2022/04/22 04:42:12;;;;;;;9.02;6.15;;;10.30;74.30;;;;;;10186995;28;20055;-64
2022/04/22 04:47:03;;;;;;;11.32;6.53;;;10.20;75.20;;;;;;10189716;28;20100;-62
2022/04/22 04:51:54;;;;;;;8.93;5.63;;;10.10;76.20;;;;;;10194395;28;20023;-62
2022/04/22 04:56:45;;;;;;;10.88;6.78;;;10.00;76.80;;;;;;10188798;28;20535;-63
2022/04/22 05:01:36;;;;;;;20.25;6.68;;;10.00;77.00;;;;;;10206638;28;20063;-63
2022/04/22 05:06:26;;;;;;;12.73;6.32;;;10.00;77.40;;;;;;10183639;28;20426;-63
2022/04/22 05:11:17;;;;;;;11.55;6.18;;;9.90;78.10;;;;;;10192062;28;20116;-63
2022/04/22 05:16:08;;;;;;;11.75;6.35;;;10.10;77.40;;;;;;10188732;28;20074;-64
2022/04/22 05:20:58;;;;;;;11.57;6.75;;;10.10;77.90;;;;;;10184088;28;20056;-65
2022/04/22 05:25:49;;;;;;;11.73;6.63;;;10.20;77.70;;;;;;10198490;28;20047;-63
2022/04/22 05:35:49;;;;;;;12.35;6.78;;;10.30;77.40;;;;;;10201114;28;20078;-64
2022/04/22 05:40:40;;;;;;;10.48;5.90;;;10.30;78.20;;;;;;10207373;28;20547;-65
2022/04/22 05:45:31;;;;;;;13.23;7.25;;;10.30;78.70;;;;;;10199131;28;20095;-62
2022/04/22 05:50:22;;;;;;;12.43;6.60;;;10.30;79.10;;;;;;10192238;28;20028;-63
2022/04/22 05:55:17;;;;;;;13.30;7.55;;;10.20;79.80;;;;;;10210307;28;20142;-64
2022/04/22 06:00:10;;;;;;;12.27;7.22;;;10.20;80.80;;;;;;10216004;28;20382;-63
2022/04/22 06:05:01;;;;;;;11.35;6.43;;;10.20;80.90;;;;;;10196840;28;20040;-64
2022/04/22 06:15:04;;;;;;;13.90;6.93;;;10.40;80.50;;;;;;10188206;28;20477;-64
2022/04/22 06:19:56;;;;;;;13.23;8.20;;;10.40;80.90;;;;;;10204050;28;20051;-64
2022/04/22 06:24:47;;;;;;;13.02;7.80;;;10.60;80.30;;;;;;10187483;28;20055;-62
2022/04/22 06:29:38;;;;;;;13.13;7.82;;;10.70;80.10;;;;;;10214785;28;20027;-63
2022/04/22 06:34:29;;;;;;;15.25;8.45;;;10.70;80.30;;;;;;10212389;28;20544;-67
2022/04/22 06:39:20;;;;;;;13.40;7.95;;;10.80;80.60;;;;;;10204867;28;20054;-65
2022/04/22 06:49:20;;;;;;;13.25;8.15;;;10.80;81.40;;;;;;10207742;28;20085;-64
2022/04/22 06:54:11;;;;;;;10.52;7.35;;;10.90;81.60;;;;;;10212466;28;20055;-67
2022/04/22 06:59:03;;;;;;;14.05;7.63;;;11.00;80.80;;;;;;10211382;28;20035;-64
2022/04/22 07:03:55;;;;;;;15.02;8.82;;;11.10;81.30;;;;;;10207049;28;20088;-65
2022/04/22 07:08:46;;;;;;;13.52;7.43;;;11.20;80.80;;;;;;10192754;28;20076;-67
2022/04/22 07:13:37;;;;;;;16.90;8.13;;;11.30;80.40;;;;;;10183240;28;20027;-68
2022/04/22 07:18:28;;;;;;;15.00;8.05;;;11.40;80.40;;;;;;10209089;28;20064;-62
2022/04/22 07:23:19;;;;;;;14.20;8.30;;;11.40;80.60;;;;;;10194827;28;20122;-62
2022/04/22 07:28:11;;;;;;;13.68;8.45;;;11.60;80.30;;;;;;10197759;28;20044;-65
2022/04/22 07:33:02;;;;;;;16.13;8.02;;;11.70;79.90;;;;;;10199244;28;20038;-62
2022/04/22 07:37:54;;;;;;;16.05;7.82;;;11.90;79.60;;;;;;10205686;28;20027;-64
2022/04/22 07:48:01;;;;;;;13.60;7.80;;;12.00;79.60;;;;;;10158153;28;20036;-65
2022/04/22 07:52:51;;;;;;;11.35;7.35;;;11.90;79.80;;;;;;10201611;28;20027;-65
2022/04/22 07:57:42;;;;;;;14.00;8.40;;;12.20;79.00;;;;;;10209676;28;20425;-62
2022/04/22 08:02:33;;;;;;;17.58;8.27;;;12.20;79.40;;;;;;10207957;28;20024;-63
2022/04/22 08:07:24;;;;;;;17.83;7.88;;;12.20;79.30;;;;;;10205800;28;20096;-64
2022/04/22 08:12:16;;;;;;;18.77;8.50;;;12.30;79.30;;;;;;10193204;28;20212;-64
2022/04/22 08:17:07;;;;;;;11.88;6.90;;;12.20;79.40;;;;;;10190294;28;20860;-63
2022/04/22 08:21:58;;;;;;;13.05;7.55;;;12.30;79.30;;;;;;10183543;28;20429;-64
2022/04/22 08:26:49;;;;;;;13.02;7.93;;;12.50;78.70;;;;;;10193596;28;20056;-63
2022/04/22 08:31:39;;;;;;;11.07;7.43;;;12.80;78.00;;;;;;10177363;28;20020;-64
2022/04/22 08:36:31;;;;;;;11.68;8.13;;;12.90;77.60;;;;;;10197286;28;20035;-63
2022/04/22 08:41:22;;;;;;;14.73;7.60;;;12.90;77.70;;;;;;10206853;28;20024;-66
2022/04/22 08:51:24;;;;;;;13.02;7.13;;;13.10;77.30;;;;;;10198819;28;20105;-66
2022/04/22 08:56:14;;;;;;;15.43;7.47;;;13.30;77.00;;;;;;10203763;28;20372;-67
2022/04/22 09:01:07;;;;;;;11.60;7.82;;;13.50;76.60;;;;;;10199687;28;20109;-65
2022/04/22 09:05:59;;;;;;;13.15;7.55;;;13.50;76.50;;;;;;10204949;28;20028;-66
2022/04/22 09:10:53;;;;;;;14.98;8.00;;;13.60;76.40;;;;;;10181396;28;20110;-67
2022/04/22 09:15:45;;;;;;;13.83;8.43;;;13.80;75.70;;;;;;10188063;28;20142;-66
2022/04/22 09:20:37;;;;;;;15.27;7.60;;;13.90;75.70;;;;;;10206194;28;20039;-63
2022/04/22 09:25:29;;;;;;;12.55;8.02;;;13.90;75.80;;;;;;10208758;28;20054;-66
2022/04/22 09:30:19;;;;;;;14.25;7.85;;;13.90;75.70;;;;;;10204893;28;20134;-64
2022/04/22 09:35:17;;;;;;;12.55;7.40;;;13.80;75.60;;;;;;10207336;28;20036;-65
2022/04/22 09:45:19;;;;;;;18.75;8.45;;;14.30;74.60;;;;;;10208659;28;20304;-63
2022/04/22 09:50:11;;;;;;;14.07;8.23;;;14.30;74.30;;;;;;10214981;28;20032;-64
2022/04/22 09:55:07;;;;;;;12.93;8.40;;;14.40;74.30;;;;;;10210575;28;20034;-63
2022/04/22 09:59:58;;;;;;;13.55;7.28;;;14.60;73.60;;;;;;10211344;28;20051;-66
2022/04/22 10:04:50;;;;;;;12.63;8.02;;;14.60;73.60;;;;;;10216910;28;20031;-72
2022/04/22 10:09:41;;;;;;;13.20;8.07;;;14.70;73.40;;;;;;10207969;28;20011;-59
2022/04/22 10:14:38;;;;;;;13.85;8.30;;;14.80;73.30;;;;;;10197581;28;20504;-64
2022/04/22 10:19:30;;;;;;;13.27;8.02;;;15.00;72.90;;;;;;10206747;28;20043;-64
2022/04/22 10:24:22;;;;;;;12.85;7.05;;;15.00;73.10;;;;;;10207515;28;20039;-64
2022/04/22 10:29:13;;;;;;;13.90;8.50;;;15.10;72.70;;;;;;10202218;28;20390;-63
2022/04/22 10:34:07;;;;;;;10.43;7.05;;;15.30;72.30;;;;;;10190013;28;20406;-63
2022/04/22 10:38:58;;;;;;;15.55;8.40;;;15.40;72.30;;;;;;10174350;28;20463;-64
2022/04/22 10:49:14;;;;;;;12.30;8.35;;;15.40;71.80;;;;;;10200788;28;20433;-64
2022/04/22 10:54:05;;;;;;;14.15;8.52;;;15.40;72.20;;;;;;10202225;28;20048;-64
2022/04/22 10:59:20;;;;;;;10.43;7.13;;;15.70;71.30;;;;;;10210066;27;20047;-64
2022/04/22 11:04:23;;;;;;;11.43;6.70;;;15.90;70.30;;;;;;10185644;28;20026;-63
2022/04/22 11:09:28;;;;;;;10.48;6.72;;;15.90;70.00;;;;;;10203923;28;20035;-64
2022/04/22 11:14:23;;;;;;;8.90;5.95;;;16.00;69.60;;;;;;10186324;28;20509;-64
2022/04/22 11:19:20;;;;;;;10.60;7.03;;;16.10;69.60;;;;;;10192131;28;20423;-65
2022/04/22 11:24:19;;;;;;;10.48;6.13;;;16.20;69.40;;;;;;10174679;28;20047;-64
2022/04/22 11:29:10;;;;;;;9.75;7.10;;;16.30;69.20;;;;;;10192801;28;20028;-64
2022/04/22 11:34:10;;;;;;;10.02;7.28;;;16.60;68.70;;;;;;10179515;28;20055;-64
2022/04/22 11:39:00;;;;;;;8.48;6.25;;;16.60;68.10;;;;;;10185788;28;20036;-65
2022/04/22 11:43:51;;;;;;;11.90;6.07;;;16.50;68.60;;;;;;10194326;28;20027;-64
2022/04/22 11:48:50;;;;;;;10.43;6.60;;;16.70;68.00;;;;;;10198810;28;20120;-65
2022/04/22 11:53:53;;;;;;;8.75;5.50;;;16.70;67.60;;;;;;10198407;28;20024;-65
2022/04/22 11:58:44;;;;;;;9.25;6.53;;;16.90;67.10;;;;;;10203740;28;20570;-64
2022/04/22 12:08:54;;;;;;;10.25;7.28;;;17.40;66.30;;;;;;10181675;28;20553;-63
2022/04/22 12:13:47;;;;;;;8.82;6.63;;;17.50;65.40;;;;;;10204096;28;20493;-64
2022/04/22 12:18:40;;;;;;;11.63;7.78;;;17.80;65.30;;;;;;10188342;28;20047;-64
2022/04/22 12:23:35;;;;;;;8.35;5.43;;;18.10;65.10;;;;;;10197221;28;20012;-60
2022/04/22 12:28:26;;;;;;;11.82;7.20;;;18.60;64.10;;;;;;10200746;28;20043;-65
2022/04/22 12:33:19;;;;;;;9.50;6.65;;;18.60;64.10;;;;;;10171862;28;20126;-64
2022/04/22 12:38:13;;;;;;;8.45;6.22;;;19.00;64.30;;;;;;10198597;28;20071;-64
2022/04/22 12:43:31;;;;;;;8.75;6.07;;;19.40;64.20;;;;;;10178711;28;20112;-66
2022/04/22 12:53:31;;;;;;;7.05;6.00;;;20.30;64.50;;;;;;10207278;28;20080;-64
2022/04/22 12:58:22;;;;;;;8.63;6.45;;;20.70;64.10;;;;;;10187278;28;20509;-63
2022/04/22 13:03:13;;;;;;;6.97;6.25;;;20.80;62.70;;;;;;10185624;28;20028;-66
2022/04/22 13:08:11;;;;;;;9.77;5.90;;;20.90;61.10;;;;;;10198682;28;20077;-63
2022/04/22 13:13:01;;;;;;;6.50;5.82;;;21.70;58.30;;;;;;10193010;28;21215;-63
2022/04/22 13:17:53;;;;;;;8.32;5.97;;;22.50;57.00;;;;;;10177445;28;20040;-64
2022/04/22 13:22:45;;;;;;;7.20;6.13;;;23.80;55.50;;;;;;10195526;28;20413;-63
2022/04/22 13:27:36;;;;;;;9.55;6.65;;;24.90;53.00;;;;;;10194339;28;20506;-65
2022/04/22 13:32:27;;;;;;;5.90;5.28;;;25.10;51.10;;;;;;10184232;28;20020;-61
2022/04/22 13:37:18;;;;;;;6.20;5.60;;;25.50;49.40;;;;;;10192825;28;20031;-63
2022/04/22 13:42:09;;;;;;;6.00;5.40;;;25.90;48.40;;;;;;10198611;28;20512;-64
2022/04/22 13:52:26;;;;;;;6.95;4.80;;;27.10;46.20;;;;;;10189659;28;20039;-63
2022/04/22 13:57:17;;;;;;;7.40;5.63;;;27.00;45.60;;;;;;10195410;28;20047;-65
2022/04/22 14:02:08;;;;;;;6.15;5.13;;;27.20;45.00;;;;;;10199791;28;20563;-65
2022/04/22 14:06:59;;;;;;;5.15;4.65;;;27.10;44.00;;;;;;10213559;28;20027;-57
2022/04/22 14:11:49;;;;;;;5.78;5.20;;;27.40;43.50;;;;;;10213264;28;20016;-63
2022/04/22 14:16:40;;;;;;;7.57;4.53;;;28.20;43.10;;;;;;10200457;28;20363;-63
2022/04/22 14:21:32;;;;;;;4.63;4.18;;;28.30;42.60;;;;;;10211173;28;20383;-63
2022/04/22 14:26:23;;;;;;;5.65;4.40;;;28.40;42.00;;;;;;10192219;28;20127;-63
2022/04/22 14:31:14;;;;;;;5.35;4.85;;;28.10;42.10;;;;;;10207010;28;20100;-65
2022/04/22 14:36:05;;;;;;;6.18;5.07;;;27.60;41.90;;;;;;10194944;28;20048;-65
2022/04/22 14:40:55;;;;;;;5.47;4.18;;;27.10;41.90;;;;;;10211133;28;20035;-64
2022/04/22 14:45:46;;;;;;;4.97;4.47;;;27.80;41.20;;;;;;10196252;28;20092;-62
2022/04/22 14:50:37;;;;;;;5.03;4.22;;;28.30;40.50;;;;;;10213466;28;20053;-63
2022/04/22 14:55:27;;;;;;;5.57;3.83;;;27.80;40.30;;;;;;10203241;28;20441;-64
2022/04/22 15:00:18;;;;;;;6.07;4.07;;;27.30;40.60;;;;;;10201555;28;20032;-63
2022/04/22 15:05:09;;;;;;;5.43;4.55;;;27.60;40.30;;;;;;10211599;28;20561;-65
2022/04/22 15:10:02;;;;;;;5.57;4.30;;;27.40;39.80;;;;;;10208684;28;20095;-65
2022/04/22 15:14:52;;;;;;;4.60;4.07;;;27.20;39.90;;;;;;10203092;28;20566;-63
2022/04/22 15:24:52;;;;;;;5.15;4.15;;;28.40;39.00;;;;;;10200533;28;20051;-63
2022/04/22 15:29:43;;;;;;;5.68;4.47;;;27.80;38.80;;;;;;10197701;28;20034;-64
2022/04/22 15:34:34;;;;;;;5.80;5.20;;;28.50;38.40;;;;;;10201160;28;20112;-65
2022/04/22 15:39:25;;;;;;;7.93;4.05;;;27.70;38.50;;;;;;10194604;28;20039;-64
2022/04/22 15:44:26;;;;;;;7.93;5.65;;;28.30;38.00;;;;;;10192335;28;20084;-64
2022/04/22 15:49:16;;;;;;;4.72;3.85;;;28.40;37.30;;;;;;10191505;28;20049;-64
2022/04/22 15:54:07;;;;;;;6.72;4.70;;;27.90;37.70;;;;;;10211627;28;20045;-64
2022/04/22 15:58:58;;;;;;;5.60;4.47;;;27.40;38.00;;;;;;10179404;28;20131;-63
2022/04/22 16:03:49;;;;;;;7.25;4.30;;;27.70;37.60;;;;;;10186719;28;20643;-63
2022/04/22 16:08:41;;;;;;;5.03;4.07;;;28.20;37.30;;;;;;10181650;28;20497;-65
2022/04/22 16:18:43;;;;;;;4.97;3.95;;;29.50;36.30;;;;;;10196336;28;20126;-63
2022/04/22 16:23:34;;;;;;;5.07;4.07;;;29.80;35.60;;;;;;10194181;28;20019;-63
2022/04/22 16:28:25;;;;;;;8.30;4.85;;;30.20;35.20;;;;;;10194239;28;20455;-63
2022/04/22 16:33:16;;;;;;;5.43;4.18;;;29.60;35.50;;;;;;10188577;28;20439;-63
2022/04/22 16:38:06;;;;;;;5.28;4.10;;;29.80;35.40;;;;;;10196505;28;20032;-64
2022/04/22 16:43:00;;;;;;;4.38;3.97;;;29.80;35.50;;;;;;10187691;28;20035;-66
2022/04/22 16:47:50;;;;;;;;;;;29.70;35.30;;;;;;10196288;28;20566;-62
2022/04/22 16:52:42;;;;;;;4.32;3.92;;;28.30;35.90;;;;;;10164271;28;19973;-63
2022/04/22 16:57:33;;;;;;;5.35;4.05;;;28.10;36.60;;;;;;10185006;28;20123;-64
2022/04/22 17:02:26;;;;;;;6.50;4.50;;;27.60;36.70;;;;;;10191993;28;20512;-63
2022/04/22 17:07:17;;;;;;;5.18;4.13;;;27.80;36.60;;;;;;10206651;28;20059;-63
2022/04/22 17:12:08;;;;;;;6.22;4.22;;;27.60;36.80;;;;;;10195876;28;20031;-63
2022/04/22 17:27:18;;;;;;;6.13;4.70;;;26.40;37.60;;;;;;10207743;28;20131;-62
2022/04/22 17:32:09;;;;;;;7.10;4.40;;;24.20;39.90;;;;;;10204235;28;20737;-62
2022/04/22 17:37:01;;;;;;;6.47;4.70;;;23.20;40.90;;;;;;10176279;28;20100;-61
2022/04/22 17:41:53;;;;;;;5.35;4.40;;;22.60;41.40;;;;;;10189676;28;20542;-61
2022/04/22 17:46:44;;;;;;;7.95;4.40;;;22.10;42.10;;;;;;10185324;28;20028;-62
2022/04/22 17:51:35;;;;;;;7.13;4.70;;;21.70;42.60;;;;;;10209959;28;20039;-61
2022/04/22 17:56:26;;;;;;;4.35;3.53;;;21.60;42.60;;;;;;10194213;28;20036;-62
2022/04/22 18:01:17;;;;;;;4.68;4.03;;;21.40;42.80;;;;;;10186446;28;20036;-61
2022/04/22 18:06:07;;;;;;;8.05;4.80;;;21.20;43.30;;;;;;10193268;28;20024;-61
2022/04/22 18:10:58;;;;;;;8.27;4.53;;;20.90;43.70;;;;;;10206294;28;20055;-60
2022/04/22 18:20:59;;;;;;;5.95;4.53;;;20.90;43.90;;;;;;10189956;28;20043;-61
2022/04/22 18:25:51;;;;;;;6.72;4.30;;;20.50;44.60;;;;;;10189969;28;20147;-62
2022/04/22 18:30:41;;;;;;;8.30;4.55;;;20.40;44.70;;;;;;10205947;28;20112;-62
2022/04/22 18:35:33;;;;;;;7.80;3.50;;;20.40;44.90;;;;;;10196654;28;20096;-60
2022/04/22 18:40:24;;;;;;;5.80;3.65;;;20.30;45.20;;;;;;10186359;28;20476;-62
2022/04/22 18:45:17;;;;;;;9.20;5.75;;;20.20;45.50;;;;;;10209589;28;20135;-60
2022/04/22 18:50:11;;;;;;;6.53;4.13;;;20.10;45.70;;;;;;10204330;28;20031;-62
2022/04/22 18:55:02;;;;;;;5.50;4.60;;;20.00;45.90;;;;;;10180136;28;20020;-61
2022/04/22 18:59:52;;;;;;;6.50;4.45;;;19.90;46.20;;;;;;10192242;28;20058;-61
2022/04/22 19:04:43;;;;;;;8.50;4.78;;;19.90;46.50;;;;;;10186981;28;20070;-64
2022/04/22 19:09:34;;;;;;;7.07;4.40;;;19.90;46.50;;;;;;10182786;28;20043;-62
2022/04/22 19:14:27;;;;;;;6.57;3.92;;;19.80;46.80;;;;;;10175861;28;20071;-63
2022/04/22 19:19:18;;;;;;;5.05;4.13;;;19.70;47.00;;;;;;10157419;28;20087;-60
2022/04/22 19:24:08;;;;;;;6.68;4.43;;;19.60;47.20;;;;;;10198726;28;20540;-62
2022/04/22 19:29:00;;;;;;;7.07;4.40;;;19.50;47.40;;;;;;10197204;28;20032;-63
2022/04/22 19:33:51;;;;;;;6.32;4.60;;;19.40;47.50;;;;;;10191600;28;20497;-60
2022/04/22 19:43:52;;;;;;;7.53;5.20;;;19.30;47.80;;;;;;10179324;28;20084;-64
2022/04/22 19:48:42;;;;;;;7.63;4.93;;;19.30;47.80;;;;;;10194675;28;20401;-60
2022/04/22 19:53:35;;;;;;;5.70;4.45;;;19.30;47.90;;;;;;10172073;28;20031;-63
2022/04/22 19:58:25;;;;;;;7.80;4.22;;;19.30;47.80;;;;;;10191152;28;20050;-61
2022/04/22 20:03:16;;;;;;;6.95;4.43;;;19.20;48.10;;;;;;10200507;28;20094;-61
2022/04/22 20:08:07;;;;;;;7.03;4.30;;;19.20;48.00;;;;;;10197357;28;20473;-61
2022/04/22 20:13:01;;;;;;;8.07;4.70;;;19.20;48.40;;;;;;10193606;28;20617;-61
2022/04/22 20:17:51;;;;;;;7.15;4.53;;;19.10;48.40;;;;;;10177782;28;20066;-61
2022/04/22 20:22:42;;;;;;;5.10;3.97;;;19.10;48.70;;;;;;10191065;28;20049;-61
2022/04/22 20:27:32;;;;;;;7.60;5.50;;;19.00;48.90;;;;;;10196053;28;20051;-61
2022/04/22 20:32:23;;;;;;;4.97;3.33;;;19.00;49.10;;;;;;10193765;28;20024;-62
2022/04/22 20:42:23;;;;;;;6.35;3.58;;;19.00;49.10;;;;;;10200279;28;20096;-62
2022/04/22 20:47:14;;;;;;;9.02;4.50;;;19.00;49.40;;;;;;10178760;28;20030;-60
2022/04/22 20:52:04;;;;;;;9.43;4.78;;;18.90;49.60;;;;;;10200076;28;20402;-60
2022/04/22 20:56:55;;;;;;;8.65;4.43;;;18.80;49.70;;;;;;10181987;28;20467;-63
2022/04/22 21:01:46;;;;;;;6.03;3.53;;;18.80;49.80;;;;;;10202269;28;20271;-61
2022/04/22 21:06:37;;;;;;;4.80;3.72;;;18.70;49.90;;;;;;10193967;28;20032;-61
2022/04/22 21:11:29;;;;;;;8.65;3.97;;;18.60;50.30;;;;;;10182634;28;20626;-60
2022/04/22 21:16:21;;;;;;;5.43;3.45;;;18.50;50.40;;;;;;10205951;28;20131;-61
2022/04/22 21:21:12;;;;;;;4.93;3.40;;;18.50;50.40;;;;;;10184413;28;20072;-62
2022/04/22 21:26:03;;;;;;;4.15;3.75;;;18.40;50.50;;;;;;10184913;28;20221;-61
2022/04/22 21:30:53;;;;;;;5.38;3.97;;;18.40;50.70;;;;;;10185171;28;20072;-62
2022/04/22 21:35:45;;;;;;;5.47;3.75;;;18.30;51.50;;;;;;10189449;28;20023;-60
2022/04/22 21:40:40;;;;;;;5.35;4.03;;;18.10;51.10;;;;;;10194773;28;20103;-62
2022/04/22 21:45:30;;;;;;;5.20;3.53;;;18.10;51.30;;;;;;10201831;28;20374;-64
2022/04/22 21:50:21;;;;;;;4.80;3.95;;;17.90;51.50;;;;;;10212039;28;20036;-62
2022/04/22 21:55:12;;;;;;;5.60;3.92;;;17.70;51.80;;;;;;10175184;28;20043;-61
2022/04/22 22:00:05;;;;;;;4.97;4.45;;;17.70;52.10;;;;;;10199850;28;20031;-62
2022/04/22 22:04:56;;;;;;;7.90;4.63;;;17.60;53.00;;;;;;10188575;28;20023;-62
2022/04/22 22:09:46;;;;;;;7.72;3.90;;;17.40;52.90;;;;;;10192641;28;20023;-60
2022/04/22 22:14:38;;;;;;;6.15;4.15;;;17.20;53.20;;;;;;10194821;28;20024;-61
2022/04/22 22:19:29;;;;;;;5.18;3.70;;;17.10;53.80;;;;;;10198416;28;20231;-61
2022/04/22 22:24:19;;;;;;;4.72;3.63;;;17.00;53.70;;;;;;10195934;28;20561;-60
2022/04/22 22:29:11;;;;;;;6.30;3.80;;;17.00;53.80;;;;;;10191859;28;20035;-60
2022/04/22 22:34:01;;;;;;;4.50;3.95;;;16.80;54.10;;;;;;10201964;28;20503;-60
2022/04/22 22:38:52;;;;;;;7.05;3.33;;;16.90;54.00;;;;;;10192080;28;20126;-60
2022/04/22 22:43:45;;;;;;;5.13;3.47;;;16.70;54.50;;;;;;10180933;28;20081;-61
2022/04/22 22:48:36;;;;;;;4.95;4.43;;;16.60;54.60;;;;;;10208281;28;20242;-63
2022/04/22 22:53:27;;;;;;;4.88;3.83;;;16.50;54.90;;;;;;10200945;28;20533;-60
2022/04/22 22:58:18;;;;;;;5.68;3.55;;;16.50;55.20;;;;;;10200125;28;20282;-62
2022/04/22 23:03:09;;;;;;;5.65;3.55;;;16.40;55.40;;;;;;10200750;28;20041;-61
2022/04/22 23:08:01;;;;;;;5.72;4.32;;;16.40;55.40;;;;;;10212996;28;20327;-62
2022/04/22 23:12:53;;;;;;;6.43;4.40;;;16.40;55.30;;;;;;10201689;28;20380;-62
2022/04/22 23:17:45;;;;;;;4.55;3.92;;;16.30;55.40;;;;;;10188258;28;20502;-61
2022/04/22 23:22:36;;;;;;;5.47;4.13;;;16.30;55.70;;;;;;10211841;28;20363;-61
2022/04/22 23:27:26;;;;;;;5.80;4.35;;;16.30;55.70;;;;;;10194536;28;20123;-60
2022/04/22 23:32:17;;;;;;;6.93;4.43;;;16.20;56.10;;;;;;10199936;28;20114;-61
2022/04/22 23:37:07;;;;;;;5.32;4.18;;;16.00;56.50;;;;;;10206903;28;20036;-61
2022/04/22 23:42:00;;;;;;;5.93;4.28;;;16.00;56.90;;;;;;10180206;28;20055;-61
2022/04/22 23:46:50;;;;;;;8.88;3.85;;;15.90;56.70;;;;;;10182913;28;20107;-61
2022/04/22 23:51:41;;;;;;;5.72;4.28;;;15.80;57.10;;;;;;10210266;28;20099;-60
2022/04/22 23:56:32;;;;;;;7.53;4.90;;;15.70;57.20;;;;;;10179552;28;20139;-61
